Flight Track Log - Related Links

Times and Time Zones

All times are in EST time to prevent confusion due to time zone crossing. See the N897MB flight status page for this flight to view local times or setup timezone preferences in your user account.

Time Position Orientation Groundspeed Altitude Reporting Facility
EST Latitude Longitude Course Direction KTS MPH feet Rate Location/Type
Sun 01:55:00 PM 34.3142 -79.8431 323° Northwest  Level FlightAware Approximate
Sun 01:56:00 PM 34.3399 -79.8670 323° Northwest  Level FlightAware Approximate
Sun 01:57:00 PM 34.3657 -79.8909 323° Northwest  Level FlightAware Approximate
Sun 01:58:00 PM 34.3914 -79.9148 323° Northwest  Level FlightAware Approximate
Sun 01:59:00 PM 34.4172 -79.9388 323° Northwest  Level FlightAware Approximate
Sun 02:00:00 PM 34.4429 -79.9627 322° Northwest  Level FlightAware Approximate
Sun 02:01:00 PM 34.4686 -79.9867 322° Northwest  Level FlightAware Approximate
Sun 02:02:00 PM 34.4943 -80.0106 322° Northwest  Level FlightAware Approximate
Sun 02:03:00 PM 34.5201 -80.0346 322° Northwest  Level FlightAware Approximate
Sun 02:04:00 PM 34.5458 -80.0586 322° Northwest  Level FlightAware Approximate
Sun 02:05:00 PM 34.5715 -80.0827 322° Northwest  Level FlightAware Approximate
Sun 02:06:00 PM 34.5972 -80.1067 322° Northwest  Level FlightAware Approximate
Sun 02:07:00 PM 34.6229 -80.1308 322° Northwest  Level FlightAware Approximate
Sun 02:08:00 PM 34.6489 -80.1543 324° Northwest  Level Estimated
Sun 02:09:00 PM 34.6750 -80.1777 324° Northwest  Level FlightAware Approximate
Sun 02:10:00 PM 34.7011 -80.2012 324° Northwest  Level FlightAware Approximate
Sun 02:11:00 PM 34.7272 -80.2246 324° Northwest  Level FlightAware Approximate
Sun 02:12:00 PM 34.7532 -80.2481 324° Northwest  Level FlightAware Approximate
Sun 02:13:00 PM 34.7793 -80.2716 323° Northwest  Level FlightAware Approximate
Sun 02:14:00 PM 34.8054 -80.2951 323° Northwest  Level FlightAware Approximate
Sun 02:15:00 PM 34.8314 -80.3186 323° Northwest  Level FlightAware Approximate
Sun 02:16:00 PM 34.8575 -80.3422 323° Northwest  Level FlightAware Approximate
Sun 02:17:00 PM 34.8835 -80.3657 323° Northwest  Level FlightAware Approximate
Sun 02:17:25 PM 34.5969 -80.2258 322° Northwest 73 84 4,600  Level Atlanta Center
Sun 02:18:00 PM 34.9096 -80.3893 323° Northwest  Level FlightAware Approximate
Sun 02:18:26 PM 34.6122 -80.2456 313° West 75 86 4,500  Level Atlanta Center
Sun 02:19:00 PM 34.9355 -80.4131 321° Northwest  Level Estimated
Sun 02:19:27 PM 34.6275 -80.2650 314° West 77 89 4,500  Level Atlanta Center
Sun 02:20:00 PM 34.9611 -80.4374 322° Northwest  Level FlightAware Approximate
Sun 02:20:33 PM 34.6467 -80.2817 324° Northwest 75 86 4,500  Level Atlanta Center
Sun 02:21:00 PM 34.9867 -80.4617 322° Northwest  Level FlightAware Approximate
Sun 02:21:40 PM 34.6658 -80.2961 328° Northwest 78 90 4,500  Level Atlanta Center
Sun 02:22:00 PM 35.0123 -80.4861 322° Northwest  Level FlightAware Approximate
Sun 02:22:41 PM 34.6889 -80.2925 North 96 110  Level Atlanta Center
Sun 02:23:48 PM 34.7197 -80.2811 17° North 94 108 4,600 1,385 Climbing Atlanta Center
Sun 02:24:43 PM 34.7406 -80.2775 North 89 102 -47 Descending Atlanta Center
Sun 02:25:56 PM 34.7697 -80.2814 354° North 85 98 4,500 2,060 Climbing Atlanta Center
Sun 02:26:57 PM 34.7889 -80.2881 344° North 83 96 4,600 58 Climbing Atlanta Center
Sun 02:27:40 PM 34.8078 -80.2922 350° North 81 93 4,600  Level Atlanta Center
Sun 02:28:47 PM 34.8328 -80.2936 357° North 85 98 4,600 -47 Level Atlanta Center
Sun 02:29:47 PM 34.8558 -80.2978 352° North 86 99 4,500 -50 Descending Atlanta Center
Sun 02:30:48 PM 34.8828 -80.2939 North 90 104 4,500  Level Atlanta Center
Sun 02:31:49 PM 34.9081 -80.2953 357° North 89 102 4,500  Level Atlanta Center
Sun 02:32:50 PM 34.9331 -80.2992 353° North 90 104 4,500 -49 Level Atlanta Center
Sun 02:33:51 PM 34.9542 -80.3083 340° North 88 101 4,400 -49 Descending Atlanta Center
Sun 02:34:52 PM 34.9775 -80.3200 338° Northwest 84 97 4,400  Level Atlanta Center
Sun 02:35:59 PM 35.0044 -80.3114 15° North 98 113 4,400 -47 Level Atlanta Center
Sun 02:37:00 PM 35.0292 -80.3050 12° North 88 101 4,300 -197 Descending Atlanta Center
Sun 02:38:01 PM 35.0525 -80.3142 342° North 96 110 4,000 -273 Descending Atlanta Center
Sun 02:38:50 PM 35.0658 -80.3389 303° West 102 117 3,800 -466 Descending Atlanta Center
Sun 02:39:57 PM 35.0772 -80.3689 295° West 98 113 3,100 -516 Descending Atlanta Center
Sun 02:40:58 PM 35.0947 -80.3986 306° West 95 109 2,700 -246 Descending Atlanta Center
Sun 02:41:59 PM 35.1081 -80.4258 301° West 93 107 2,600 -52 Descending Atlanta Center
Sun 02:42:54 PM 35.1172 -80.4508 294° West 93 107 2,600 -52 Level Atlanta Center
Sun 02:43:55 PM 35.1322 -80.4731 310° West 90 104 2,500  Descending Atlanta Center
Sun 02:44:56 PM 35.1456 -80.5006 301° West 89 102 2,600  Climbing Atlanta Center
Sun 02:45:57 PM 35.1528 -80.5306 286° West 89 102 2,500 47 Descending Atlanta Center
Sun 02:47:04 PM 35.1619 -80.5633 289° West 87 100 2,700 179 Climbing Atlanta Center
Sun 02:49:00 PM 35.1793 -80.6103 294° West  Level FlightAware Approximate
Sun 02:56:00 PM 35.2000 -80.6667 295° West  Level FlightAware Approximate
Sun 02:57:00 PM 35.2137 -80.6701 295° West  Level Estimated
Sun 02:58:00 PM 35.2137 -80.6701 295° West  Level Estimated

Login

Don't have an account? Register now (free) for customized features, flight alerts, and more!